Wudu, China
Current Conditions -  °F | °C
As of 1:00 AM on Friday 31 Oct 2014 (Local Time) from ZUUU Reporting Station
Broken Clouds Broken Clouds  
Wind Chill: 61°   Ceiling: 1600
Heat Index: 61°   Visibility: 4mi
Dew Point: 55°   Wind: 2mph
Humidity: 82%   Direction: NA
Pressure: 30.03"   Gusts: NA
Location:  33.4°N, 104.92°E
Report Text: ZUUU 301700Z VRB01MPS 6000 BKN016 16/13 Q1017 NOSIG
Loading
Personal Weather Stations






























Interactive Weather Map
Tropical Storm Tracking
New forecast layout! Learn more

10-Day Weather Forecast

Advertisements
Track Severe Weather on mobile